Rechercher aéroport 
image banner adimage banner adimage banner ad
image banner ad

33CL - Oak Country Ranch

Situé à Paso Robles, United States

ICAO - 33CL, IATA -

Données fournies par Airmate  

Information générale

Coordonnées: N35°34'6" W120°47'51"
Élévation : 1200 feet MSL.
Variation magnétique : 15° East
Voir autres Aéroports à California

Données opérationnelles

Special qualification required
Heure actuelle UTC:
Heure actuelle locale:
Météo à : KPRB - Paso Robles Muni ( 19 km )
METAR: KPRB 262153Z AUTO 23012KT 10SM CLR 29/09 A2993 RMK AO2 SLP125 T02940089
TAF: KPRB 261740Z 2618/2718 19005KT P6SM BKN120 FM261900 21010KT P6SM VCSH BKN120 FM262100 20015G25KT P6SM VCSH BKN120 FM270300 19007KT P6SM BKN120
Voir NOTAMs / SUP AIP / TFR affectant cet aéroport [VIEW]
Fréquences de communication: [VIEW]

Pistes:

Identifiant RWYQFULongueur (ft)Largeur (ft)SurfaceLDA (ft)
17220050ASPH
35220050ASPH

Coordonnées de l'aéroport

Adresse: Paso Robles United States

Vue satellite de 33CL